Time,TemperatureF,DewpointF,PressureIn,WindDirection,WindDirectionDegrees,WindSpeedMPH,WindSpeedGustMPH,Humidity,HourlyPrecipIn,Conditions,Clouds,dailyrainin,SoftwareType,DateUTC
2013-02-14 00:05:00,24.2,21.0,29.73,West,276,0.0,0.0,88,0.00,,,0.00,weatherlink.com 1.10,2013-02-14 05:05:00,
2013-02-14 00:20:00,25.8,22.0,29.73,WNW,294,0.0,4.0,86,0.00,,,0.00,weatherlink.com 1.10,2013-02-14 05:20:00,
2013-02-14 00:35:00,26.9,22.0,29.72,WNW,294,0.0,3.0,82,0.00,,,0.00,weatherlink.com 1.10,2013-02-14 05:35:00,
2013-02-14 00:50:00,29.1,22.0,29.71,NW,305,5.0,5.0,75,0.00,,,0.00,weatherlink.com 1.10,2013-02-14 05:50:00,
2013-02-14 01:05:00,29.2,22.0,29.71,WNW,303,1.0,5.0,73,0.00,,,0.00,weatherlink.com 1.10,2013-02-14 06:05:00,
2013-02-14 01:20:00,27.1,21.0,29.73,WNW,303,0.0,1.0,79,0.00,,,0.00,weatherlink.com 1.10,2013-02-14 06:20:00,
2013-02-14 01:35:00,25.6,21.0,29.75,WNW,303,0.0,1.0,83,0.00,,,0.00,weatherlink.com 1.10,2013-02-14 06:35:00,
2013-02-14 01:50:00,24.8,21.0,29.75,WNW,303,0.0,0.0,85,0.00,,,0.00,weatherlink.com 1.10,2013-02-14 06:50:00,
2013-02-14 02:05:00,24.7,21.0,29.76,WNW,303,0.0,0.0,85,0.00,,,0.00,weatherlink.com 1.10,2013-02-14 07:05:00,
2013-02-14 02:20:00,23.8,20.0,29.77,WNW,303,0.0,0.0,86,0.00,,,0.00,weatherlink.com 1.10,2013-02-14 07:20:00,
2013-02-14 02:35:00,23.6,20.0,29.76,WNW,303,0.0,1.0,87,0.00,,,0.00,weatherlink.com 1.10,2013-02-14 07:35:00,
2013-02-14 02:50:00,23.4,20.0,29.76,WNW,303,0.0,0.0,86,0.00,,,0.00,weatherlink.com 1.10,2013-02-14 07:50:00,
2013-02-14 03:05:00,22.7,20.0,29.76,WNW,303,0.0,0.0,88,0.00,,,0.00,weatherlink.com 1.10,2013-02-14 08:05:00,
2013-02-14 03:20:00,22.2,19.0,29.76,WNW,303,0.0,0.0,88,0.00,,,0.00,weatherlink.com 1.10,2013-02-14 08:20:00,
2013-02-14 03:36:00,21.6,19.0,29.77,WNW,303,0.0,0.0,89,0.00,,,0.00,weatherlink.com 1.10,2013-02-14 08:36:00,
2013-02-14 03:53:00,21.3,19.0,29.78,WNW,303,0.0,0.0,90,0.00,,,0.00,weatherlink.com 1.10,2013-02-14 08:53:00,
2013-02-14 04:06:00,20.8,18.0,29.77,WNW,303,0.0,0.0,90,0.00,,,0.00,weatherlink.com 1.10,2013-02-14 09:06:00,
2013-02-14 04:21:00,20.3,18.0,29.78,WNW,303,0.0,0.0,90,0.00,,,0.00,weatherlink.com 1.10,2013-02-14 09:21:00,
2013-02-14 04:36:00,19.8,18.0,29.78,WNW,303,0.0,0.0,91,0.00,,,0.00,weatherlink.com 1.10,2013-02-14 09:36:00,
2013-02-14 04:51:00,19.7,18.0,29.79,WNW,303,0.0,0.0,92,0.00,,,0.00,weatherlink.com 1.10,2013-02-14 09:51:00,
2013-02-14 05:06:00,19.3,17.0,29.79,WNW,303,0.0,0.0,91,0.00,,,0.00,weatherlink.com 1.10,2013-02-14 10:06:00,
2013-02-14 05:21:00,18.6,16.0,29.79,WNW,303,0.0,0.0,91,0.00,,,0.00,weatherlink.com 1.10,2013-02-14 10:21:00,
2013-02-14 05:36:00,18.0,16.0,29.79,WNW,303,0.0,0.0,91,0.00,,,0.00,weatherlink.com 1.10,2013-02-14 10:36:00,
2013-02-14 05:51:00,17.6,16.0,29.80,WNW,303,0.0,0.0,92,0.00,,,0.00,weatherlink.com 1.10,2013-02-14 10:51:00,
2013-02-14 06:06:00,17.3,15.0,29.81,WNW,303,0.0,0.0,92,0.00,,,0.00,weatherlink.com 1.10,2013-02-14 11:06:00,
2013-02-14 06:21:00,17.6,16.0,29.81,WNW,303,0.0,0.0,93,0.00,,,0.00,weatherlink.com 1.10,2013-02-14 11:21:00,
2013-02-14 06:36:00,18.1,16.0,29.82,WNW,303,0.0,1.0,93,0.00,,,0.00,weatherlink.com 1.10,2013-02-14 11:36:00,
2013-02-14 06:51:00,18.7,17.0,29.83,WNW,303,0.0,0.0,93,0.00,,,0.00,weatherlink.com 1.10,2013-02-14 11:51:00,
2013-02-14 07:06:00,19.5,18.0,29.83,WNW,303,0.0,0.0,93,0.00,,,0.00,weatherlink.com 1.10,2013-02-14 12:06:00,
2013-02-14 07:21:00,19.9,18.0,29.84,WNW,303,0.0,0.0,93,0.00,,,0.00,weatherlink.com 1.10,2013-02-14 12:21:00,
2013-02-14 07:36:00,20.4,19.0,29.84,WNW,303,0.0,0.0,94,0.00,,,0.00,weatherlink.com 1.10,2013-02-14 12:36:00,
2013-02-14 07:51:00,20.9,19.0,29.85,WNW,303,0.0,0.0,93,0.00,,,0.00,weatherlink.com 1.10,2013-02-14 12:51:00,
2013-02-14 08:06:00,21.6,20.0,29.85,WNW,303,0.0,0.0,93,0.00,,,0.00,weatherlink.com 1.10,2013-02-14 13:06:00,
2013-02-14 08:21:00,22.8,21.0,29.86,WNW,303,0.0,0.0,93,0.00,,,0.00,weatherlink.com 1.10,2013-02-14 13:21:00,
2013-02-14 08:36:00,23.9,21.0,29.86,WNW,303,0.0,0.0,90,0.00,,,0.00,weatherlink.com 1.10,2013-02-14 13:36:00,
2013-02-14 08:51:00,25.0,22.0,29.86,WNW,303,0.0,2.0,87,0.00,,,0.00,weatherlink.com 1.10,2013-02-14 13:51:00,
2013-02-14 09:06:00,-999.0,-99.9,29.87,North,-999,-999.0,-999.0,-999,0.00,,,0.00,weatherlink.com 1.10,2013-02-14 14:06:00,
2013-02-14 09:21:00,-999.0,-99.9,29.87,North,-999,-999.0,-999.0,-999,0.00,,,0.00,weatherlink.com 1.10,2013-02-14 14:21:00,
2013-02-14 09:36:00,-999.0,-99.9,29.87,North,-999,-999.0,-999.0,-999,0.00,,,0.00,weatherlink.com 1.10,2013-02-14 14:36:00,
2013-02-14 09:51:00,31.6,24.0,29.87,WNW,303,0.0,2.0,74,0.00,,,0.00,weatherlink.com 1.10,2013-02-14 14:51:00,
2013-02-14 10:07:00,33.4,22.0,29.88,WNW,302,6.0,10.0,63,0.00,,,0.00,weatherlink.com 1.10,2013-02-14 15:07:00,
2013-02-14 10:22:00,33.5,22.0,29.88,NNW,338,7.0,11.0,64,0.00,,,0.00,weatherlink.com 1.10,2013-02-14 15:22:00,
2013-02-14 10:37:00,33.2,22.0,29.88,West,280,3.0,12.0,64,0.00,,,0.00,weatherlink.com 1.10,2013-02-14 15:37:00,
2013-02-14 10:52:00,33.1,22.0,29.89,NW,320,2.0,9.0,63,0.00,,,0.00,weatherlink.com 1.10,2013-02-14 15:52:00,
2013-02-14 11:10:00,33.3,22.0,29.89,North,355,4.0,8.0,63,0.00,,,0.00,weatherlink.com 1.10,2013-02-14 16:10:00,
2013-02-14 11:22:00,33.4,22.0,29.90,NW,320,2.0,7.0,64,0.00,,,0.00,weatherlink.com 1.10,2013-02-14 16:22:00,
2013-02-14 11:37:00,33.6,22.0,29.89,NNW,348,2.0,11.0,63,0.00,,,0.00,weatherlink.com 1.10,2013-02-14 16:37:00,
2013-02-14 11:52:00,33.7,22.0,29.89,NW,309,2.0,9.0,63,0.00,,,0.00,weatherlink.com 1.10,2013-02-14 16:52:00,
2013-02-14 12:07:00,34.2,23.0,29.89,West,259,5.0,6.0,63,0.00,,,0.00,weatherlink.com 1.10,2013-02-14 17:07:00,
2013-02-14 12:22:00,34.5,23.0,29.89,West,271,3.0,8.0,62,0.00,,,0.00,weatherlink.com 1.10,2013-02-14 17:22:00,
2013-02-14 12:37:00,35.2,22.0,29.88,WNW,289,2.0,12.0,58,0.00,,,0.00,weatherlink.com 1.10,2013-02-14 17:37:00,
2013-02-14 12:52:00,35.6,22.0,29.88,WNW,296,2.0,8.0,57,0.00,,,0.00,weatherlink.com 1.10,2013-02-14 17:52:00,
2013-02-14 13:07:00,35.9,22.0,29.87,West,263,6.0,11.0,57,0.00,,,0.00,weatherlink.com 1.10,2013-02-14 18:07:00,
2013-02-14 13:22:00,36.7,22.0,29.87,NW,304,5.0,9.0,55,0.00,,,0.00,weatherlink.com 1.10,2013-02-14 18:22:00,
2013-02-14 13:37:00,36.8,21.0,29.87,West,272,5.0,10.0,53,0.00,,,0.00,weatherlink.com 1.10,2013-02-14 18:37:00,
2013-02-14 13:52:00,37.6,22.0,29.87,NNW,347,0.0,8.0,53,0.00,,,0.00,weatherlink.com 1.10,2013-02-14 18:52:00,
2013-02-14 14:07:00,37.9,22.0,29.87,NW,306,3.0,9.0,52,0.00,,,0.00,weatherlink.com 1.10,2013-02-14 19:07:00,
2013-02-14 14:22:00,37.9,22.0,29.87,NW,306,3.0,8.0,53,0.00,,,0.00,weatherlink.com 1.10,2013-02-14 19:22:00,
2013-02-14 14:37:00,38.3,22.0,29.88,NW,316,4.0,7.0,53,0.00,,,0.00,weatherlink.com 1.10,2013-02-14 19:37:00,
2013-02-14 14:52:00,38.6,22.0,29.88,West,266,6.0,8.0,51,0.00,,,0.00,weatherlink.com 1.10,2013-02-14 19:52:00,
2013-02-14 15:07:00,38.4,22.0,29.88,NW,308,0.0,5.0,52,0.00,,,0.00,weatherlink.com 1.10,2013-02-14 20:07:00,
2013-02-14 15:22:00,37.9,21.0,29.88,NW,311,2.0,8.0,51,0.00,,,0.00,weatherlink.com 1.10,2013-02-14 20:22:00,
2013-02-14 15:37:00,37.6,20.0,29.88,NW,304,0.0,6.0,50,0.00,,,0.00,weatherlink.com 1.10,2013-02-14 20:37:00,
2013-02-14 15:52:00,37.1,21.0,29.88,WNW,303,1.0,5.0,52,0.00,,,0.00,weatherlink.com 1.10,2013-02-14 20:52:00,
2013-02-14 16:07:00,36.4,21.0,29.88,WNW,283,0.0,4.0,54,0.00,,,0.00,weatherlink.com 1.10,2013-02-14 21:07:00,
2013-02-14 16:22:00,36.4,21.0,29.89,NW,313,0.0,3.0,53,0.00,,,0.00,weatherlink.com 1.10,2013-02-14 21:22:00,
2013-02-14 16:37:00,36.1,21.0,29.90,NW,309,1.0,4.0,55,0.00,,,0.00,weatherlink.com 1.10,2013-02-14 21:37:00,
2013-02-14 16:52:00,35.6,21.0,29.91,NW,309,0.0,1.0,56,0.00,,,0.00,weatherlink.com 1.10,2013-02-14 21:52:00,
2013-02-14 17:07:00,34.7,21.0,29.92,NW,309,0.0,4.0,58,0.00,,,0.00,weatherlink.com 1.10,2013-02-14 22:07:00,
2013-02-14 17:23:00,32.5,21.0,29.93,NW,309,0.0,0.0,64,0.00,,,0.00,weatherlink.com 1.10,2013-02-14 22:23:00,
2013-02-14 17:37:00,30.3,21.0,29.93,NW,309,0.0,0.0,69,0.00,,,0.00,weatherlink.com 1.10,2013-02-14 22:37:00,
2013-02-14 17:52:00,28.0,21.0,29.94,NW,309,0.0,0.0,75,0.00,,,0.00,weatherlink.com 1.10,2013-02-14 22:52:00,
2013-02-14 18:07:00,26.4,20.0,29.94,NW,309,0.0,0.0,77,0.00,,,0.00,weatherlink.com 1.10,2013-02-14 23:07:00,
2013-02-14 18:22:00,25.2,20.0,29.95,NW,309,0.0,0.0,80,0.00,,,0.00,weatherlink.com 1.10,2013-02-14 23:22:00,
2013-02-14 18:38:00,24.3,19.0,29.96,NW,309,0.0,0.0,81,0.00,,,0.00,weatherlink.com 1.10,2013-02-14 23:38:00,
2013-02-14 18:53:00,23.6,19.0,29.96,NW,309,0.0,0.0,83,0.00,,,0.00,weatherlink.com 1.10,2013-02-14 23:53:00,
2013-02-14 19:08:00,23.0,19.0,29.96,NW,309,0.0,0.0,83,0.00,,,0.00,weatherlink.com 1.10,2013-02-15 00:08:00,
2013-02-14 19:23:00,22.3,19.0,29.97,NW,309,0.0,0.0,85,0.00,,,0.00,weatherlink.com 1.10,2013-02-15 00:23:00,
2013-02-14 19:38:00,21.7,18.0,29.97,NW,309,0.0,0.0,86,0.00,,,0.00,weatherlink.com 1.10,2013-02-15 00:38:00,
2013-02-14 19:53:00,21.1,18.0,29.98,NW,309,0.0,0.0,86,0.00,,,0.00,weatherlink.com 1.10,2013-02-15 00:53:00,
2013-02-14 20:08:00,20.3,17.0,29.98,NW,309,0.0,0.0,87,0.00,,,0.00,weatherlink.com 1.10,2013-02-15 01:08:00,
2013-02-14 20:23:00,19.7,17.0,29.97,NW,309,0.0,0.0,89,0.00,,,0.00,weatherlink.com 1.10,2013-02-15 01:23:00,
2013-02-14 20:38:00,19.6,17.0,29.97,NW,309,0.0,0.0,90,0.00,,,0.00,weatherlink.com 1.10,2013-02-15 01:38:00,
2013-02-14 20:53:00,19.4,17.0,29.97,NW,309,0.0,0.0,90,0.00,,,0.00,weatherlink.com 1.10,2013-02-15 01:53:00,
2013-02-14 21:08:00,19.5,17.0,29.97,NW,309,0.0,0.0,90,0.00,,,0.00,weatherlink.com 1.10,2013-02-15 02:08:00,
2013-02-14 21:23:00,19.3,17.0,29.97,NW,309,0.0,0.0,90,0.00,,,0.00,weatherlink.com 1.10,2013-02-15 02:23:00,
2013-02-14 21:38:00,19.1,17.0,29.97,NW,309,0.0,0.0,90,0.00,,,0.00,weatherlink.com 1.10,2013-02-15 02:38:00,
2013-02-14 21:53:00,19.3,17.0,29.98,NW,309,0.0,0.0,92,0.00,,,0.00,weatherlink.com 1.10,2013-02-15 02:53:00,
2013-02-14 22:08:00,20.1,18.0,29.97,NW,309,0.0,0.0,92,0.00,,,0.00,weatherlink.com 1.10,2013-02-15 03:08:00,
2013-02-14 22:23:00,20.8,19.0,29.98,NW,309,0.0,0.0,92,0.00,,,0.00,weatherlink.com 1.10,2013-02-15 03:23:00,
2013-02-14 22:38:00,21.0,19.0,29.98,NW,309,0.0,0.0,91,0.00,,,0.00,weatherlink.com 1.10,2013-02-15 03:38:00,
2013-02-14 22:53:00,21.3,19.0,29.98,NW,309,0.0,0.0,90,0.00,,,0.00,weatherlink.com 1.10,2013-02-15 03:53:00,
2013-02-14 23:08:00,21.3,19.0,29.97,NW,309,0.0,0.0,90,0.00,,,0.00,weatherlink.com 1.10,2013-02-15 04:08:00,
2013-02-14 23:23:00,21.4,19.0,29.97,NW,309,0.0,0.0,90,0.00,,,0.00,weatherlink.com 1.10,2013-02-15 04:23:00,
2013-02-14 23:38:00,21.5,19.0,29.97,NW,309,0.0,0.0,90,0.00,,,0.00,weatherlink.com 1.10,2013-02-15 04:38:00,
2013-02-14 23:53:00,22.1,19.0,29.97,NW,309,0.0,0.0,89,0.00,,,0.00,weatherlink.com 1.10,2013-02-15 04:53:00,